sensor_id;sensor_type;location;lat;lon;timestamp;P1;durP1;ratioP1;P2;durP2;ratioP2
16304;SDS011;8261;47.678;-122.174;2023-03-13T00:01:55;3.93;;;1.20;;
16304;SDS011;8261;47.678;-122.174;2023-03-13T00:04:27;2.17;;;0.90;;
16304;SDS011;8261;47.678;-122.174;2023-03-13T00:06:59;2.57;;;1.07;;
16304;SDS011;8261;47.678;-122.174;2023-03-13T00:09:33;0.83;;;0.80;;
16304;SDS011;8261;47.678;-122.174;2023-03-13T00:12:05;3.07;;;0.87;;
16304;SDS011;8261;47.678;-122.174;2023-03-13T00:14:37;0.87;;;0.70;;
16304;SDS011;8261;47.678;-122.174;2023-03-13T00:17:08;2.10;;;0.57;;
16304;SDS011;8261;47.678;-122.174;2023-03-13T00:19:40;2.00;;;1.00;;
16304;SDS011;8261;47.678;-122.174;2023-03-13T00:22:12;1.97;;;1.23;;
16304;SDS011;8261;47.678;-122.174;2023-03-13T00:24:47;3.13;;;1.93;;
16304;SDS011;8261;47.678;-122.174;2023-03-13T00:27:18;5.93;;;2.50;;
16304;SDS011;8261;47.678;-122.174;2023-03-13T00:29:50;6.80;;;2.90;;
16304;SDS011;8261;47.678;-122.174;2023-03-13T00:32:23;4.27;;;2.33;;
16304;SDS011;8261;47.678;-122.174;2023-03-13T00:34:55;5.53;;;2.63;;
16304;SDS011;8261;47.678;-122.174;2023-03-13T00:37:27;2.87;;;1.67;;
16304;SDS011;8261;47.678;-122.174;2023-03-13T00:40:04;2.57;;;1.47;;
16304;SDS011;8261;47.678;-122.174;2023-03-13T00:42:36;1.00;;;0.90;;
16304;SDS011;8261;47.678;-122.174;2023-03-13T00:45:12;1.27;;;0.90;;
16304;SDS011;8261;47.678;-122.174;2023-03-13T00:47:43;1.40;;;0.70;;
16304;SDS011;8261;47.678;-122.174;2023-03-13T00:50:17;1.77;;;0.57;;
16304;SDS011;8261;47.678;-122.174;2023-03-13T00:52:49;0.90;;;0.70;;
16304;SDS011;8261;47.678;-122.174;2023-03-13T00:55:24;0.60;;;0.60;;
16304;SDS011;8261;47.678;-122.174;2023-03-13T00:57:57;0.50;;;0.40;;
16304;SDS011;8261;47.678;-122.174;2023-03-13T01:00:29;4.20;;;0.60;;
16304;SDS011;8261;47.678;-122.174;2023-03-13T01:03:04;0.70;;;0.60;;
16304;SDS011;8261;47.678;-122.174;2023-03-13T01:05:36;2.93;;;0.60;;
16304;SDS011;8261;47.678;-122.174;2023-03-13T01:08:10;2.57;;;1.40;;
16304;SDS011;8261;47.678;-122.174;2023-03-13T01:10:44;6.43;;;2.20;;
16304;SDS011;8261;47.678;-122.174;2023-03-13T01:13:16;8.77;;;3.50;;
16304;SDS011;8261;47.678;-122.174;2023-03-13T01:15:48;7.87;;;5.50;;
16304;SDS011;8261;47.678;-122.174;2023-03-13T01:18:21;8.70;;;4.90;;
16304;SDS011;8261;47.678;-122.174;2023-03-13T01:20:54;5.93;;;2.40;;
16304;SDS011;8261;47.678;-122.174;2023-03-13T01:23:26;2.20;;;1.40;;
16304;SDS011;8261;47.678;-122.174;2023-03-13T01:26:02;2.37;;;1.20;;
16304;SDS011;8261;47.678;-122.174;2023-03-13T01:28:35;2.23;;;1.00;;
16304;SDS011;8261;47.678;-122.174;2023-03-13T01:31:11;1.13;;;1.00;;
16304;SDS011;8261;47.678;-122.174;2023-03-13T01:33:44;1.00;;;0.80;;
16304;SDS011;8261;47.678;-122.174;2023-03-13T01:36:17;1.50;;;0.70;;
16304;SDS011;8261;47.678;-122.174;2023-03-13T01:38:50;2.10;;;1.10;;
16304;SDS011;8261;47.678;-122.174;2023-03-13T01:41:26;1.20;;;0.70;;
16304;SDS011;8261;47.678;-122.174;2023-03-13T01:43:59;1.87;;;1.10;;
16304;SDS011;8261;47.678;-122.174;2023-03-13T01:46:31;2.03;;;0.90;;
16304;SDS011;8261;47.678;-122.174;2023-03-13T01:49:03;1.20;;;0.77;;
16304;SDS011;8261;47.678;-122.174;2023-03-13T01:51:40;0.80;;;0.70;;
16304;SDS011;8261;47.678;-122.174;2023-03-13T01:54:15;1.40;;;0.80;;
16304;SDS011;8261;47.678;-122.174;2023-03-13T01:56:52;1.20;;;1.10;;
16304;SDS011;8261;47.678;-122.174;2023-03-13T01:59:29;1.67;;;1.57;;
16304;SDS011;8261;47.678;-122.174;2023-03-13T02:02:05;2.87;;;1.50;;
16304;SDS011;8261;47.678;-122.174;2023-03-13T02:04:39;5.80;;;1.77;;
16304;SDS011;8261;47.678;-122.174;2023-03-13T02:07:17;2.43;;;1.40;;
16304;SDS011;8261;47.678;-122.174;2023-03-13T02:09:53;1.90;;;1.43;;
16304;SDS011;8261;47.678;-122.174;2023-03-13T02:12:35;1.37;;;1.20;;
16304;SDS011;8261;47.678;-122.174;2023-03-13T02:15:09;1.77;;;1.23;;
16304;SDS011;8261;47.678;-122.174;2023-03-13T02:17:45;1.87;;;1.13;;
16304;SDS011;8261;47.678;-122.174;2023-03-13T02:20:18;1.17;;;0.73;;
16304;SDS011;8261;47.678;-122.174;2023-03-13T02:22:52;1.37;;;1.20;;
16304;SDS011;8261;47.678;-122.174;2023-03-13T02:25:36;1.93;;;1.10;;
16304;SDS011;8261;47.678;-122.174;2023-03-13T02:28:14;1.70;;;0.90;;
16304;SDS011;8261;47.678;-122.174;2023-03-13T02:30:50;1.33;;;0.93;;
16304;SDS011;8261;47.678;-122.174;2023-03-13T02:33:27;2.20;;;1.10;;
16304;SDS011;8261;47.678;-122.174;2023-03-13T02:36:00;2.40;;;1.00;;
16304;SDS011;8261;47.678;-122.174;2023-03-13T02:38:35;1.97;;;1.10;;
16304;SDS011;8261;47.678;-122.174;2023-03-13T02:41:13;1.20;;;1.10;;
16304;SDS011;8261;47.678;-122.174;2023-03-13T02:43:45;1.57;;;1.00;;
16304;SDS011;8261;47.678;-122.174;2023-03-13T02:46:17;0.90;;;0.80;;
16304;SDS011;8261;47.678;-122.174;2023-03-13T02:48:51;1.97;;;1.13;;
16304;SDS011;8261;47.678;-122.174;2023-03-13T02:51:26;1.73;;;1.10;;
16304;SDS011;8261;47.678;-122.174;2023-03-13T02:54:03;5.10;;;1.37;;
16304;SDS011;8261;47.678;-122.174;2023-03-13T02:56:45;4.10;;;1.60;;
16304;SDS011;8261;47.678;-122.174;2023-03-13T02:59:21;3.67;;;1.20;;
16304;SDS011;8261;47.678;-122.174;2023-03-13T03:01:53;3.03;;;1.30;;
16304;SDS011;8261;47.678;-122.174;2023-03-13T03:04:28;2.77;;;1.20;;
16304;SDS011;8261;47.678;-122.174;2023-03-13T03:07:01;1.53;;;1.30;;
16304;SDS011;8261;47.678;-122.174;2023-03-13T03:09:33;1.27;;;0.90;;
16304;SDS011;8261;47.678;-122.174;2023-03-13T03:12:08;1.20;;;1.00;;
16304;SDS011;8261;47.678;-122.174;2023-03-13T03:14:40;1.00;;;0.90;;
16304;SDS011;8261;47.678;-122.174;2023-03-13T03:17:13;1.20;;;1.10;;
16304;SDS011;8261;47.678;-122.174;2023-03-13T03:19:44;1.40;;;0.87;;
16304;SDS011;8261;47.678;-122.174;2023-03-13T03:22:16;2.80;;;1.00;;
16304;SDS011;8261;47.678;-122.174;2023-03-13T03:24:49;1.87;;;1.20;;
16304;SDS011;8261;47.678;-122.174;2023-03-13T03:27:24;4.37;;;0.90;;
16304;SDS011;8261;47.678;-122.174;2023-03-13T03:29:59;1.43;;;0.70;;
16304;SDS011;8261;47.678;-122.174;2023-03-13T03:32:33;2.83;;;0.97;;
16304;SDS011;8261;47.678;-122.174;2023-03-13T03:35:05;4.30;;;1.47;;
16304;SDS011;8261;47.678;-122.174;2023-03-13T03:37:38;1.47;;;0.80;;
16304;SDS011;8261;47.678;-122.174;2023-03-13T03:40:12;0.87;;;0.77;;
16304;SDS011;8261;47.678;-122.174;2023-03-13T03:42:46;0.40;;;0.40;;
16304;SDS011;8261;47.678;-122.174;2023-03-13T03:45:23;0.80;;;0.80;;
16304;SDS011;8261;47.678;-122.174;2023-03-13T03:47:56;1.80;;;0.70;;
16304;SDS011;8261;47.678;-122.174;2023-03-13T03:50:28;0.97;;;0.60;;
16304;SDS011;8261;47.678;-122.174;2023-03-13T03:53:00;1.50;;;0.70;;
16304;SDS011;8261;47.678;-122.174;2023-03-13T03:55:32;1.13;;;0.80;;
16304;SDS011;8261;47.678;-122.174;2023-03-13T03:58:10;1.70;;;0.80;;
16304;SDS011;8261;47.678;-122.174;2023-03-13T04:00:42;1.13;;;0.80;;
16304;SDS011;8261;47.678;-122.174;2023-03-13T04:03:19;2.10;;;0.87;;
16304;SDS011;8261;47.678;-122.174;2023-03-13T04:05:50;1.43;;;0.80;;
16304;SDS011;8261;47.678;-122.174;2023-03-13T04:08:22;0.70;;;0.60;;
16304;SDS011;8261;47.678;-122.174;2023-03-13T04:10:54;1.03;;;0.70;;
16304;SDS011;8261;47.678;-122.174;2023-03-13T04:13:28;1.70;;;0.80;;
16304;SDS011;8261;47.678;-122.174;2023-03-13T04:15:59;0.90;;;0.67;;
16304;SDS011;8261;47.678;-122.174;2023-03-13T04:18:36;1.53;;;0.90;;
16304;SDS011;8261;47.678;-122.174;2023-03-13T04:21:07;0.97;;;0.60;;
16304;SDS011;8261;47.678;-122.174;2023-03-13T04:23:38;1.17;;;0.80;;
16304;SDS011;8261;47.678;-122.174;2023-03-13T04:26:12;1.27;;;0.60;;
16304;SDS011;8261;47.678;-122.174;2023-03-13T04:28:46;3.03;;;0.70;;
16304;SDS011;8261;47.678;-122.174;2023-03-13T04:31:19;0.87;;;0.70;;
16304;SDS011;8261;47.678;-122.174;2023-03-13T04:33:50;0.53;;;0.50;;
16304;SDS011;8261;47.678;-122.174;2023-03-13T04:36:22;0.90;;;0.60;;
16304;SDS011;8261;47.678;-122.174;2023-03-13T04:38:54;0.83;;;0.70;;
16304;SDS011;8261;47.678;-122.174;2023-03-13T04:41:26;2.00;;;0.87;;
16304;SDS011;8261;47.678;-122.174;2023-03-13T04:44:00;2.00;;;0.80;;
16304;SDS011;8261;47.678;-122.174;2023-03-13T04:46:31;1.37;;;0.70;;
16304;SDS011;8261;47.678;-122.174;2023-03-13T04:49:05;0.77;;;0.73;;
16304;SDS011;8261;47.678;-122.174;2023-03-13T04:51:37;1.53;;;0.90;;
16304;SDS011;8261;47.678;-122.174;2023-03-13T04:54:08;1.43;;;0.90;;
16304;SDS011;8261;47.678;-122.174;2023-03-13T04:56:56;2.13;;;1.10;;
16304;SDS011;8261;47.678;-122.174;2023-03-13T04:59:30;1.00;;;0.90;;
16304;SDS011;8261;47.678;-122.174;2023-03-13T05:02:01;1.20;;;0.87;;
16304;SDS011;8261;47.678;-122.174;2023-03-13T05:04:32;0.63;;;0.63;;
16304;SDS011;8261;47.678;-122.174;2023-03-13T05:07:08;1.33;;;0.90;;
16304;SDS011;8261;47.678;-122.174;2023-03-13T05:09:39;1.20;;;0.80;;
16304;SDS011;8261;47.678;-122.174;2023-03-13T05:12:11;1.63;;;1.00;;
16304;SDS011;8261;47.678;-122.174;2023-03-13T05:14:44;0.97;;;0.90;;
16304;SDS011;8261;47.678;-122.174;2023-03-13T05:17:17;3.37;;;1.10;;
16304;SDS011;8261;47.678;-122.174;2023-03-13T05:19:48;1.63;;;1.00;;
16304;SDS011;8261;47.678;-122.174;2023-03-13T05:22:20;1.27;;;0.60;;
16304;SDS011;8261;47.678;-122.174;2023-03-13T05:24:52;1.80;;;0.90;;
16304;SDS011;8261;47.678;-122.174;2023-03-13T05:27:24;1.00;;;0.80;;
16304;SDS011;8261;47.678;-122.174;2023-03-13T05:29:58;1.73;;;0.67;;
16304;SDS011;8261;47.678;-122.174;2023-03-13T05:32:30;1.13;;;0.60;;
16304;SDS011;8261;47.678;-122.174;2023-03-13T05:35:02;1.90;;;0.57;;
16304;SDS011;8261;47.678;-122.174;2023-03-13T05:37:34;1.27;;;0.70;;
16304;SDS011;8261;47.678;-122.174;2023-03-13T05:40:08;0.83;;;0.50;;
16304;SDS011;8261;47.678;-122.174;2023-03-13T05:42:40;0.80;;;0.80;;
16304;SDS011;8261;47.678;-122.174;2023-03-13T05:45:15;2.93;;;0.60;;
16304;SDS011;8261;47.678;-122.174;2023-03-13T05:47:47;1.93;;;0.70;;
16304;SDS011;8261;47.678;-122.174;2023-03-13T05:50:18;1.80;;;0.53;;
16304;SDS011;8261;47.678;-122.174;2023-03-13T05:52:49;1.40;;;0.83;;
16304;SDS011;8261;47.678;-122.174;2023-03-13T05:55:20;0.87;;;0.50;;
16304;SDS011;8261;47.678;-122.174;2023-03-13T05:57:52;1.93;;;0.60;;
16304;SDS011;8261;47.678;-122.174;2023-03-13T06:00:26;3.03;;;0.70;;
16304;SDS011;8261;47.678;-122.174;2023-03-13T06:02:59;1.40;;;0.60;;
16304;SDS011;8261;47.678;-122.174;2023-03-13T06:05:31;0.80;;;0.50;;
16304;SDS011;8261;47.678;-122.174;2023-03-13T06:08:03;0.60;;;0.60;;
16304;SDS011;8261;47.678;-122.174;2023-03-13T06:10:35;1.57;;;0.70;;
16304;SDS011;8261;47.678;-122.174;2023-03-13T06:13:07;2.53;;;0.60;;
16304;SDS011;8261;47.678;-122.174;2023-03-13T06:15:52;2.23;;;0.63;;
16304;SDS011;8261;47.678;-122.174;2023-03-13T06:18:24;1.73;;;0.50;;
16304;SDS011;8261;47.678;-122.174;2023-03-13T06:20:57;0.87;;;0.50;;
16304;SDS011;8261;47.678;-122.174;2023-03-13T06:23:31;3.83;;;0.67;;
16304;SDS011;8261;47.678;-122.174;2023-03-13T06:26:02;1.00;;;0.50;;
16304;SDS011;8261;47.678;-122.174;2023-03-13T06:28:34;1.63;;;0.60;;
16304;SDS011;8261;47.678;-122.174;2023-03-13T06:31:09;0.57;;;0.50;;
16304;SDS011;8261;47.678;-122.174;2023-03-13T06:33:41;1.37;;;0.63;;
16304;SDS011;8261;47.678;-122.174;2023-03-13T06:36:13;0.63;;;0.47;;
16304;SDS011;8261;47.678;-122.174;2023-03-13T06:38:45;1.17;;;0.67;;
16304;SDS011;8261;47.678;-122.174;2023-03-13T06:41:17;1.20;;;0.60;;
16304;SDS011;8261;47.678;-122.174;2023-03-13T06:43:49;1.80;;;0.50;;
16304;SDS011;8261;47.678;-122.174;2023-03-13T06:46:23;2.57;;;0.70;;
16304;SDS011;8261;47.678;-122.174;2023-03-13T06:48:56;1.10;;;0.63;;
16304;SDS011;8261;47.678;-122.174;2023-03-13T06:51:31;0.47;;;0.47;;
16304;SDS011;8261;47.678;-122.174;2023-03-13T06:54:02;0.43;;;0.43;;
16304;SDS011;8261;47.678;-122.174;2023-03-13T06:56:34;1.53;;;0.60;;
16304;SDS011;8261;47.678;-122.174;2023-03-13T06:59:06;1.13;;;0.57;;
16304;SDS011;8261;47.678;-122.174;2023-03-13T07:01:39;1.47;;;0.50;;
16304;SDS011;8261;47.678;-122.174;2023-03-13T07:04:11;0.93;;;0.70;;
16304;SDS011;8261;47.678;-122.174;2023-03-13T07:06:43;0.87;;;0.50;;
16304;SDS011;8261;47.678;-122.174;2023-03-13T07:09:14;1.13;;;0.50;;
16304;SDS011;8261;47.678;-122.174;2023-03-13T07:11:47;0.50;;;0.50;;
16304;SDS011;8261;47.678;-122.174;2023-03-13T07:14:22;1.03;;;0.60;;
16304;SDS011;8261;47.678;-122.174;2023-03-13T07:16:57;3.13;;;1.43;;
16304;SDS011;8261;47.678;-122.174;2023-03-13T07:19:29;1.10;;;0.60;;
16304;SDS011;8261;47.678;-122.174;2023-03-13T07:22:01;0.50;;;0.50;;
16304;SDS011;8261;47.678;-122.174;2023-03-13T07:24:32;0.50;;;0.40;;
16304;SDS011;8261;47.678;-122.174;2023-03-13T07:27:05;0.70;;;0.50;;
16304;SDS011;8261;47.678;-122.174;2023-03-13T07:29:37;0.87;;;0.63;;
16304;SDS011;8261;47.678;-122.174;2023-03-13T07:32:10;0.80;;;0.43;;
16304;SDS011;8261;47.678;-122.174;2023-03-13T07:34:41;1.27;;;0.30;;
16304;SDS011;8261;47.678;-122.174;2023-03-13T07:37:13;0.83;;;0.50;;
16304;SDS011;8261;47.678;-122.174;2023-03-13T07:39:45;0.50;;;0.50;;
16304;SDS011;8261;47.678;-122.174;2023-03-13T07:42:17;1.23;;;0.50;;
16304;SDS011;8261;47.678;-122.174;2023-03-13T07:44:49;0.67;;;0.47;;
16304;SDS011;8261;47.678;-122.174;2023-03-13T07:47:21;0.30;;;0.30;;
16304;SDS011;8261;47.678;-122.174;2023-03-13T07:49:53;0.60;;;0.40;;
16304;SDS011;8261;47.678;-122.174;2023-03-13T07:52:25;1.10;;;0.43;;
16304;SDS011;8261;47.678;-122.174;2023-03-13T07:54:56;0.47;;;0.47;;
16304;SDS011;8261;47.678;-122.174;2023-03-13T07:57:28;0.43;;;0.40;;
16304;SDS011;8261;47.678;-122.174;2023-03-13T08:00:00;0.40;;;0.40;;
16304;SDS011;8261;47.678;-122.174;2023-03-13T08:02:38;0.50;;;0.50;;
16304;SDS011;8261;47.678;-122.174;2023-03-13T08:05:10;0.90;;;0.43;;
16304;SDS011;8261;47.678;-122.174;2023-03-13T08:07:43;0.63;;;0.63;;
16304;SDS011;8261;47.678;-122.174;2023-03-13T08:10:14;0.60;;;0.40;;
16304;SDS011;8261;47.678;-122.174;2023-03-13T08:12:46;0.40;;;0.40;;
16304;SDS011;8261;47.678;-122.174;2023-03-13T08:15:17;0.57;;;0.40;;
16304;SDS011;8261;47.678;-122.174;2023-03-13T08:17:54;0.70;;;0.40;;
16304;SDS011;8261;47.678;-122.174;2023-03-13T08:20:26;0.37;;;0.20;;
16304;SDS011;8261;47.678;-122.174;2023-03-13T08:22:58;0.47;;;0.47;;
16304;SDS011;8261;47.678;-122.174;2023-03-13T08:25:29;1.43;;;0.50;;
16304;SDS011;8261;47.678;-122.174;2023-03-13T08:28:01;1.60;;;0.40;;
16304;SDS011;8261;47.678;-122.174;2023-03-13T08:30:34;0.60;;;0.43;;
16304;SDS011;8261;47.678;-122.174;2023-03-13T08:33:09;0.90;;;0.60;;
16304;SDS011;8261;47.678;-122.174;2023-03-13T08:35:40;28.87;;;1.43;;
16304;SDS011;8261;47.678;-122.174;2023-03-13T08:38:12;0.40;;;0.40;;
16304;SDS011;8261;47.678;-122.174;2023-03-13T08:40:44;1.03;;;0.40;;
16304;SDS011;8261;47.678;-122.174;2023-03-13T08:43:16;1.20;;;0.70;;
16304;SDS011;8261;47.678;-122.174;2023-03-13T08:45:53;0.53;;;0.50;;
16304;SDS011;8261;47.678;-122.174;2023-03-13T08:48:27;1.07;;;0.50;;
16304;SDS011;8261;47.678;-122.174;2023-03-13T08:50:59;2.10;;;0.80;;
16304;SDS011;8261;47.678;-122.174;2023-03-13T08:53:32;1.90;;;0.60;;
16304;SDS011;8261;47.678;-122.174;2023-03-13T08:56:04;0.80;;;0.53;;
16304;SDS011;8261;47.678;-122.174;2023-03-13T08:58:37;0.60;;;0.60;;
16304;SDS011;8261;47.678;-122.174;2023-03-13T09:01:09;1.17;;;0.50;;
16304;SDS011;8261;47.678;-122.174;2023-03-13T09:03:44;3.10;;;0.63;;
16304;SDS011;8261;47.678;-122.174;2023-03-13T09:06:16;5.87;;;0.80;;
16304;SDS011;8261;47.678;-122.174;2023-03-13T09:08:47;1.97;;;1.00;;
16304;SDS011;8261;47.678;-122.174;2023-03-13T09:11:19;3.03;;;0.60;;
16304;SDS011;8261;47.678;-122.174;2023-03-13T09:13:51;1.27;;;0.70;;
16304;SDS011;8261;47.678;-122.174;2023-03-13T09:16:26;0.50;;;0.50;;
16304;SDS011;8261;47.678;-122.174;2023-03-13T09:19:00;1.63;;;0.90;;
16304;SDS011;8261;47.678;-122.174;2023-03-13T09:21:33;1.33;;;0.50;;
16304;SDS011;8261;47.678;-122.174;2023-03-13T09:24:06;0.83;;;0.53;;
16304;SDS011;8261;47.678;-122.174;2023-03-13T09:26:37;0.50;;;0.40;;
16304;SDS011;8261;47.678;-122.174;2023-03-13T09:29:26;0.43;;;0.43;;
16304;SDS011;8261;47.678;-122.174;2023-03-13T09:31:57;1.70;;;0.60;;
16304;SDS011;8261;47.678;-122.174;2023-03-13T09:34:30;0.40;;;0.40;;
16304;SDS011;8261;47.678;-122.174;2023-03-13T09:37:02;0.70;;;0.70;;
16304;SDS011;8261;47.678;-122.174;2023-03-13T09:39:33;0.70;;;0.70;;
16304;SDS011;8261;47.678;-122.174;2023-03-13T09:42:07;0.50;;;0.40;;
16304;SDS011;8261;47.678;-122.174;2023-03-13T09:44:44;0.73;;;0.57;;
16304;SDS011;8261;47.678;-122.174;2023-03-13T09:47:20;2.00;;;0.50;;
16304;SDS011;8261;47.678;-122.174;2023-03-13T09:49:56;1.40;;;0.90;;
16304;SDS011;8261;47.678;-122.174;2023-03-13T09:52:32;0.60;;;0.60;;
16304;SDS011;8261;47.678;-122.174;2023-03-13T09:55:11;0.93;;;0.60;;
16304;SDS011;8261;47.678;-122.174;2023-03-13T09:57:48;0.50;;;0.50;;
16304;SDS011;8261;47.678;-122.174;2023-03-13T10:00:25;0.70;;;0.70;;
16304;SDS011;8261;47.678;-122.174;2023-03-13T10:03:01;0.73;;;0.70;;
16304;SDS011;8261;47.678;-122.174;2023-03-13T10:05:42;1.40;;;0.57;;
16304;SDS011;8261;47.678;-122.174;2023-03-13T10:08:17;0.40;;;0.37;;
16304;SDS011;8261;47.678;-122.174;2023-03-13T10:10:53;0.57;;;0.40;;
16304;SDS011;8261;47.678;-122.174;2023-03-13T10:13:33;0.50;;;0.50;;
16304;SDS011;8261;47.678;-122.174;2023-03-13T10:16:08;0.50;;;0.40;;
16304;SDS011;8261;47.678;-122.174;2023-03-13T10:18:47;0.70;;;0.43;;
16304;SDS011;8261;47.678;-122.174;2023-03-13T10:21:25;0.47;;;0.30;;
16304;SDS011;8261;47.678;-122.174;2023-03-13T10:24:09;0.40;;;0.40;;
16304;SDS011;8261;47.678;-122.174;2023-03-13T10:26:46;3.83;;;0.30;;
16304;SDS011;8261;47.678;-122.174;2023-03-13T10:29:21;0.30;;;0.30;;
16304;SDS011;8261;47.678;-122.174;2023-03-13T10:31:55;0.70;;;0.40;;
16304;SDS011;8261;47.678;-122.174;2023-03-13T10:34:28;0.57;;;0.27;;
16304;SDS011;8261;47.678;-122.174;2023-03-13T10:37:18;1.40;;;0.20;;
16304;SDS011;8261;47.678;-122.174;2023-03-13T10:39:52;0.43;;;0.43;;
16304;SDS011;8261;47.678;-122.174;2023-03-13T10:42:27;0.47;;;0.40;;
16304;SDS011;8261;47.678;-122.174;2023-03-13T10:45:03;0.67;;;0.40;;
16304;SDS011;8261;47.678;-122.174;2023-03-13T10:47:37;0.87;;;0.50;;
16304;SDS011;8261;47.678;-122.174;2023-03-13T10:50:11;0.77;;;0.43;;
16304;SDS011;8261;47.678;-122.174;2023-03-13T10:52:52;0.30;;;0.30;;
16304;SDS011;8261;47.678;-122.174;2023-03-13T10:55:24;1.30;;;0.50;;
16304;SDS011;8261;47.678;-122.174;2023-03-13T10:57:57;0.30;;;0.30;;
16304;SDS011;8261;47.678;-122.174;2023-03-13T11:00:32;0.30;;;0.30;;
16304;SDS011;8261;47.678;-122.174;2023-03-13T11:03:06;0.20;;;0.20;;
16304;SDS011;8261;47.678;-122.174;2023-03-13T11:05:53;0.83;;;0.30;;
16304;SDS011;8261;47.678;-122.174;2023-03-13T11:08:28;0.50;;;0.27;;
16304;SDS011;8261;47.678;-122.174;2023-03-13T11:11:05;0.30;;;0.20;;
16304;SDS011;8261;47.678;-122.174;2023-03-13T11:13:48;0.50;;;0.27;;
16304;SDS011;8261;47.678;-122.174;2023-03-13T11:16:20;0.30;;;0.30;;
16304;SDS011;8261;47.678;-122.174;2023-03-13T11:22:06;0.40;;;0.30;;
16304;SDS011;8261;47.678;-122.174;2023-03-13T11:24:59;0.40;;;0.40;;
16304;SDS011;8261;47.678;-122.174;2023-03-13T11:27:40;0.10;;;0.10;;
16304;SDS011;8261;47.678;-122.174;2023-03-13T11:30:23;0.47;;;0.20;;
16304;SDS011;8261;47.678;-122.174;2023-03-13T11:33:14;0.83;;;0.33;;
16304;SDS011;8261;47.678;-122.174;2023-03-13T11:35:54;0.97;;;0.40;;
16304;SDS011;8261;47.678;-122.174;2023-03-13T11:38:32;0.70;;;0.50;;
16304;SDS011;8261;47.678;-122.174;2023-03-13T11:41:12;0.40;;;0.40;;
16304;SDS011;8261;47.678;-122.174;2023-03-13T11:44:05;0.50;;;0.50;;
16304;SDS011;8261;47.678;-122.174;2023-03-13T11:46:48;1.00;;;0.50;;
16304;SDS011;8261;47.678;-122.174;2023-03-13T11:49:36;0.60;;;0.47;;
16304;SDS011;8261;47.678;-122.174;2023-03-13T11:52:23;0.47;;;0.47;;
16304;SDS011;8261;47.678;-122.174;2023-03-13T12:01:15;1.30;;;0.43;;
16304;SDS011;8261;47.678;-122.174;2023-03-13T12:03:52;1.13;;;0.50;;
16304;SDS011;8261;47.678;-122.174;2023-03-13T12:06:28;0.37;;;0.37;;
16304;SDS011;8261;47.678;-122.174;2023-03-13T12:09:04;0.50;;;0.33;;
16304;SDS011;8261;47.678;-122.174;2023-03-13T12:11:42;0.77;;;0.37;;
16304;SDS011;8261;47.678;-122.174;2023-03-13T12:14:21;0.20;;;0.20;;
16304;SDS011;8261;47.678;-122.174;2023-03-13T12:16:58;1.60;;;0.50;;
16304;SDS011;8261;47.678;-122.174;2023-03-13T12:19:35;0.50;;;0.30;;
16304;SDS011;8261;47.678;-122.174;2023-03-13T12:22:21;0.30;;;0.30;;
16304;SDS011;8261;47.678;-122.174;2023-03-13T12:24:59;0.30;;;0.30;;
16304;SDS011;8261;47.678;-122.174;2023-03-13T12:27:33;1.33;;;0.60;;
16304;SDS011;8261;47.678;-122.174;2023-03-13T12:30:17;0.30;;;0.27;;
16304;SDS011;8261;47.678;-122.174;2023-03-13T12:32:58;1.13;;;0.23;;
16304;SDS011;8261;47.678;-122.174;2023-03-13T12:35:40;1.80;;;0.20;;
16304;SDS011;8261;47.678;-122.174;2023-03-13T12:38:18;1.10;;;0.30;;
16304;SDS011;8261;47.678;-122.174;2023-03-13T12:40:56;1.07;;;0.30;;
16304;SDS011;8261;47.678;-122.174;2023-03-13T12:43:41;0.30;;;0.30;;
16304;SDS011;8261;47.678;-122.174;2023-03-13T12:46:35;0.50;;;0.50;;
16304;SDS011;8261;47.678;-122.174;2023-03-13T12:49:25;0.40;;;0.40;;
16304;SDS011;8261;47.678;-122.174;2023-03-13T12:52:24;1.00;;;0.23;;
16304;SDS011;8261;47.678;-122.174;2023-03-13T12:55:23;0.20;;;0.20;;
16304;SDS011;8261;47.678;-122.174;2023-03-13T12:58:15;0.30;;;0.20;;
16304;SDS011;8261;47.678;-122.174;2023-03-13T13:01:19;0.40;;;0.40;;
16304;SDS011;8261;47.678;-122.174;2023-03-13T13:03:59;0.40;;;0.30;;
16304;SDS011;8261;47.678;-122.174;2023-03-13T13:06:52;1.43;;;0.40;;
16304;SDS011;8261;47.678;-122.174;2023-03-13T13:09:30;1.80;;;0.40;;
16304;SDS011;8261;47.678;-122.174;2023-03-13T13:12:02;0.87;;;0.50;;
16304;SDS011;8261;47.678;-122.174;2023-03-13T13:18:02;1.40;;;0.53;;
16304;SDS011;8261;47.678;-122.174;2023-03-13T13:20:47;0.50;;;0.40;;
16304;SDS011;8261;47.678;-122.174;2023-03-13T13:23:41;0.60;;;0.43;;
16304;SDS011;8261;47.678;-122.174;2023-03-13T13:32:29;1.53;;;0.93;;
16304;SDS011;8261;47.678;-122.174;2023-03-13T13:35:20;2.20;;;0.80;;
16304;SDS011;8261;47.678;-122.174;2023-03-13T13:41:22;1.17;;;0.97;;
16304;SDS011;8261;47.678;-122.174;2023-03-13T13:47:01;2.30;;;1.20;;
16304;SDS011;8261;47.678;-122.174;2023-03-13T13:52:31;0.93;;;0.83;;
16304;SDS011;8261;47.678;-122.174;2023-03-13T13:58:16;1.37;;;1.10;;
16304;SDS011;8261;47.678;-122.174;2023-03-13T14:00:51;3.27;;;1.53;;
16304;SDS011;8261;47.678;-122.174;2023-03-13T14:03:24;2.80;;;1.67;;
16304;SDS011;8261;47.678;-122.174;2023-03-13T14:05:58;6.30;;;1.93;;
16304;SDS011;8261;47.678;-122.174;2023-03-13T14:08:32;4.60;;;1.70;;
16304;SDS011;8261;47.678;-122.174;2023-03-13T14:11:12;2.63;;;2.20;;
16304;SDS011;8261;47.678;-122.174;2023-03-13T14:14:12;2.27;;;2.07;;
16304;SDS011;8261;47.678;-122.174;2023-03-13T14:16:45;4.83;;;2.20;;
16304;SDS011;8261;47.678;-122.174;2023-03-13T14:19:22;5.83;;;2.37;;
16304;SDS011;8261;47.678;-122.174;2023-03-13T14:22:00;4.77;;;1.70;;
16304;SDS011;8261;47.678;-122.174;2023-03-13T14:24:32;5.20;;;2.73;;
16304;SDS011;8261;47.678;-122.174;2023-03-13T14:27:13;4.83;;;2.10;;
16304;SDS011;8261;47.678;-122.174;2023-03-13T14:30:00;4.20;;;2.00;;
16304;SDS011;8261;47.678;-122.174;2023-03-13T14:32:34;2.27;;;1.97;;
16304;SDS011;8261;47.678;-122.174;2023-03-13T14:35:06;4.97;;;2.80;;
16304;SDS011;8261;47.678;-122.174;2023-03-13T14:37:40;3.53;;;2.30;;
16304;SDS011;8261;47.678;-122.174;2023-03-13T14:40:23;5.50;;;2.47;;
16304;SDS011;8261;47.678;-122.174;2023-03-13T14:42:57;3.33;;;2.60;;
16304;SDS011;8261;47.678;-122.174;2023-03-13T14:45:32;5.00;;;2.43;;
16304;SDS011;8261;47.678;-122.174;2023-03-13T14:48:10;3.80;;;2.10;;
16304;SDS011;8261;47.678;-122.174;2023-03-13T14:50:48;4.90;;;2.00;;
16304;SDS011;8261;47.678;-122.174;2023-03-13T14:53:39;2.70;;;1.70;;
16304;SDS011;8261;47.678;-122.174;2023-03-13T14:56:29;3.20;;;1.60;;
16304;SDS011;8261;47.678;-122.174;2023-03-13T14:59:07;3.40;;;1.70;;
16304;SDS011;8261;47.678;-122.174;2023-03-13T15:01:56;3.83;;;1.93;;
16304;SDS011;8261;47.678;-122.174;2023-03-13T15:07:34;3.00;;;1.47;;
16304;SDS011;8261;47.678;-122.174;2023-03-13T15:10:20;3.27;;;1.50;;
16304;SDS011;8261;47.678;-122.174;2023-03-13T15:12:55;1.47;;;1.00;;
16304;SDS011;8261;47.678;-122.174;2023-03-13T15:15:26;1.83;;;1.47;;
16304;SDS011;8261;47.678;-122.174;2023-03-13T15:18:01;36.33;;;3.30;;
16304;SDS011;8261;47.678;-122.174;2023-03-13T15:20:39;2.60;;;1.83;;
16304;SDS011;8261;47.678;-122.174;2023-03-13T15:23:11;1.83;;;1.30;;
16304;SDS011;8261;47.678;-122.174;2023-03-13T15:25:44;3.50;;;1.40;;
16304;SDS011;8261;47.678;-122.174;2023-03-13T15:28:17;2.10;;;1.30;;
16304;SDS011;8261;47.678;-122.174;2023-03-13T15:30:49;2.87;;;1.50;;
16304;SDS011;8261;47.678;-122.174;2023-03-13T15:33:26;2.00;;;1.40;;
16304;SDS011;8261;47.678;-122.174;2023-03-13T15:35:59;1.50;;;1.10;;
16304;SDS011;8261;47.678;-122.174;2023-03-13T15:38:32;1.20;;;1.10;;
16304;SDS011;8261;47.678;-122.174;2023-03-13T15:41:04;9.77;;;3.50;;
16304;SDS011;8261;47.678;-122.174;2023-03-13T15:43:36;7.13;;;2.60;;